createdAt,value
2019-03-08T00:01:32.899Z,7.47
2019-03-08T00:04:04.583Z,6.05
2019-03-08T00:06:36.272Z,7.27
2019-03-08T00:09:09.062Z,12.40
2019-03-08T00:11:41.016Z,6.53
2019-03-08T00:14:13.693Z,6.93
2019-03-08T00:16:45.168Z,7.30
2019-03-08T00:19:16.597Z,9.78
2019-03-08T00:21:50.180Z,5.70
2019-03-08T00:24:21.961Z,11.53
2019-03-08T00:26:53.412Z,7.15
2019-03-08T00:29:25.477Z,9.27
2019-03-08T00:31:56.930Z,4.67
2019-03-08T00:34:27.459Z,4.60
2019-03-08T00:36:58.905Z,6.47
2019-03-08T00:39:30.353Z,5.47
2019-03-08T00:42:01.508Z,5.97
2019-03-08T00:44:31.752Z,4.97
2019-03-08T00:47:03.198Z,7.57
2019-03-08T00:49:33.708Z,12.67
2019-03-08T00:52:05.167Z,17.27
2019-03-08T00:54:36.615Z,13.03
2019-03-08T00:57:06.862Z,10.55
2019-03-08T00:59:37.362Z,10.93
2019-03-08T01:02:07.623Z,8.03
2019-03-08T01:04:38.114Z,6.63
2019-03-08T01:07:08.358Z,4.97
2019-03-08T01:09:39.786Z,6.37
2019-03-08T01:12:10.026Z,9.63
2019-03-08T01:14:41.464Z,7.83
2019-03-08T01:17:11.995Z,10.23
2019-03-08T01:19:43.446Z,6.87
2019-03-08T01:22:13.964Z,7.97
2019-03-08T01:24:44.203Z,8.60
2019-03-08T01:27:15.647Z,7.87
2019-03-08T01:29:45.889Z,8.10
2019-03-08T01:32:16.398Z,9.50
2019-03-08T01:34:48.774Z,7.03
2019-03-08T01:37:20.475Z,4.57
2019-03-08T01:39:52.298Z,5.80
2019-03-08T01:42:22.533Z,7.57
2019-03-08T01:44:53.976Z,8.07
2019-03-08T01:47:24.497Z,9.70
2019-03-08T01:49:54.741Z,12.80
2019-03-08T01:52:27.095Z,9.73
2019-03-08T01:54:57.366Z,7.17
2019-03-08T01:57:28.765Z,7.63
2019-03-08T01:59:59.019Z,3.93
2019-03-08T02:02:29.512Z,4.90
2019-03-08T02:05:00.976Z,5.13
2019-03-08T02:07:33.188Z,4.33
2019-03-08T02:10:08.296Z,4.47
2019-03-08T02:12:38.692Z,5.47
2019-03-08T02:15:13.015Z,12.87
2019-03-08T02:17:43.447Z,5.97
2019-03-08T02:20:18.970Z,5.78
2019-03-08T02:22:49.409Z,4.80
2019-03-08T02:25:19.662Z,9.73
2019-03-08T02:27:51.100Z,10.77
2019-03-08T02:30:22.599Z,7.47
2019-03-08T02:32:53.376Z,5.87
2019-03-08T02:35:23.629Z,6.53
2019-03-08T02:37:55.981Z,4.27
2019-03-08T02:40:32.004Z,5.27
2019-03-08T02:43:06.031Z,3.40
2019-03-08T02:45:36.488Z,5.93
2019-03-08T02:48:07.927Z,5.20
2019-03-08T02:50:38.167Z,4.62
2019-03-08T02:53:09.596Z,5.40
2019-03-08T02:55:41.854Z,6.42
2019-03-08T02:58:12.194Z,4.47
2019-03-08T03:00:45.641Z,6.70
2019-03-08T03:03:16.455Z,7.67
2019-03-08T03:05:47.771Z,5.80
2019-03-08T03:08:18.092Z,4.77
2019-03-08T03:10:48.527Z,4.13
2019-03-08T03:13:18.762Z,8.37
2019-03-08T03:15:50.202Z,5.20
2019-03-08T03:18:21.349Z,6.67
2019-03-08T03:20:52.800Z,5.10
2019-03-08T03:23:23.044Z,7.80
2019-03-08T03:25:57.473Z,7.37
2019-03-08T03:28:28.080Z,8.07
2019-03-08T03:30:59.836Z,10.20
2019-03-08T03:33:31.589Z,4.27
2019-03-08T03:36:01.824Z,4.97
2019-03-08T03:38:33.273Z,30.90
2019-03-08T03:41:05.648Z,26.60
2019-03-08T03:43:36.170Z,22.17
2019-03-08T03:46:07.624Z,131.37
2019-03-08T03:48:39.074Z,65.83
2019-03-08T03:51:10.533Z,36.03
2019-03-08T03:53:41.052Z,31.23
2019-03-08T03:56:12.505Z,34.73
2019-03-08T03:58:42.773Z,32.97
2019-03-08T04:01:21.764Z,11.90
2019-03-08T04:03:52.071Z,9.57
2019-03-08T04:06:22.609Z,16.90
2019-03-08T04:08:54.132Z,16.33
2019-03-08T04:11:25.514Z,17.47
2019-03-08T04:13:55.757Z,17.77
2019-03-08T04:16:27.181Z,13.77
2019-03-08T04:18:57.716Z,8.83
2019-03-08T04:21:27.966Z,13.27
2019-03-08T04:23:58.476Z,8.30
2019-03-08T04:26:29.912Z,10.27
2019-03-08T04:29:00.157Z,8.57
2019-03-08T04:31:31.902Z,16.77
2019-03-08T04:34:04.030Z,10.63
2019-03-08T04:36:35.734Z,10.13
2019-03-08T04:39:07.182Z,7.87
2019-03-08T04:41:38.679Z,4.50
2019-03-08T04:44:10.383Z,7.23
2019-03-08T04:46:40.634Z,5.57
2019-03-08T04:49:11.151Z,6.07
2019-03-08T04:51:42.586Z,6.80
2019-03-08T04:54:12.824Z,7.40
2019-03-08T04:56:43.341Z,5.60
2019-03-08T04:59:13.592Z,8.77
2019-03-08T05:01:45.016Z,4.67
2019-03-08T05:04:15.257Z,5.30
2019-03-08T05:06:46.688Z,4.77
2019-03-08T05:09:18.449Z,7.17
2019-03-08T05:11:48.756Z,5.83
2019-03-08T05:14:19.216Z,9.57
2019-03-08T05:16:50.652Z,6.23
2019-03-08T05:19:22.146Z,4.10
2019-03-08T05:21:52.931Z,5.87
2019-03-08T05:24:24.401Z,9.63
2019-03-08T05:26:58.228Z,16.03
2019-03-08T05:29:32.534Z,16.67
2019-03-08T05:32:03.961Z,11.93
2019-03-08T05:34:35.431Z,5.20
2019-03-08T05:37:05.660Z,5.13
2019-03-08T05:39:36.182Z,7.07
2019-03-08T05:42:06.699Z,4.47
2019-03-08T05:44:37.233Z,5.73
2019-03-08T05:47:07.491Z,5.67
2019-03-08T05:49:37.997Z,4.93
2019-03-08T05:52:08.523Z,9.47
2019-03-08T05:54:39.060Z,4.97
2019-03-08T05:57:11.444Z,7.83
2019-03-08T05:59:45.401Z,8.87
2019-03-08T06:02:17.081Z,11.53
2019-03-08T06:04:47.614Z,11.07
2019-03-08T06:07:23.583Z,7.57
2019-03-08T06:09:55.437Z,9.57
2019-03-08T06:12:27.827Z,10.27
2019-03-08T06:14:59.276Z,8.90
2019-03-08T06:17:29.775Z,8.17
2019-03-08T06:20:00.947Z,7.83
2019-03-08T06:22:33.085Z,7.00
2019-03-08T06:25:04.606Z,6.35
2019-03-08T06:27:34.980Z,13.60
2019-03-08T06:30:08.371Z,5.28
2019-03-08T06:32:40.949Z,14.73
2019-03-08T06:35:11.503Z,20.27
2019-03-08T06:37:42.487Z,11.50
2019-03-08T06:40:15.617Z,22.13
2019-03-08T06:42:47.062Z,18.57
2019-03-08T06:45:19.004Z,17.42
2019-03-08T06:47:51.806Z,9.65
2019-03-08T06:50:22.078Z,12.60
2019-03-08T06:52:52.604Z,22.45
2019-03-08T06:55:24.026Z,14.35
2019-03-08T06:58:01.364Z,15.65
2019-03-08T07:00:36.586Z,10.95
2019-03-08T07:03:09.875Z,7.50
2019-03-08T07:05:41.910Z,13.68
2019-03-08T07:08:13.650Z,13.43
2019-03-08T07:10:44.423Z,21.00
2019-03-08T07:13:15.854Z,15.43
2019-03-08T07:15:47.322Z,17.90
2019-03-08T07:18:17.838Z,16.87
2019-03-08T07:20:50.941Z,21.15
2019-03-08T07:23:27.954Z,15.90
2019-03-08T07:26:07.152Z,9.55
2019-03-08T07:28:54.197Z,6.83
2019-03-08T07:31:41.683Z,16.48
2019-03-08T07:34:26.998Z,12.40
2019-03-08T07:37:15.626Z,15.30
2019-03-08T07:39:47.587Z,21.93
2019-03-08T07:42:25.179Z,9.43
2019-03-08T07:44:57.225Z,14.47
2019-03-08T07:47:46.040Z,9.00
2019-03-08T07:50:22.347Z,17.80
2019-03-08T07:52:56.489Z,11.53
2019-03-08T07:55:46.440Z,11.65
2019-03-08T07:58:37.646Z,14.87
2019-03-08T08:01:09.538Z,17.70
2019-03-08T08:03:44.263Z,18.17
2019-03-08T08:06:18.288Z,23.60
2019-03-08T08:09:06.504Z,8.20
2019-03-08T08:11:58.316Z,19.20
2019-03-08T08:14:39.642Z,16.10
2019-03-08T08:17:28.700Z,24.35
2019-03-08T08:20:03.826Z,19.70
2019-03-08T08:22:46.570Z,16.05
2019-03-08T08:25:18.613Z,19.90
2019-03-08T08:28:07.679Z,8.70
2019-03-08T08:30:39.652Z,21.80
2019-03-08T08:33:14.438Z,12.28
2019-03-08T08:35:49.016Z,16.52
2019-03-08T08:38:35.988Z,8.43
2019-03-08T08:41:12.533Z,10.68
2019-03-08T08:43:47.619Z,6.97
2019-03-08T08:46:29.750Z,8.63
2019-03-08T08:49:03.460Z,24.23
2019-03-08T08:51:38.247Z,15.53
2019-03-08T08:54:13.250Z,23.52
2019-03-08T08:57:02.222Z,15.93
2019-03-08T08:59:43.869Z,27.52
2019-03-08T09:02:18.895Z,19.82
2019-03-08T09:05:05.834Z,8.80
2019-03-08T09:07:39.900Z,12.73
2019-03-08T09:10:15.165Z,14.25
2019-03-08T09:13:02.055Z,13.93
2019-03-08T09:15:36.065Z,10.23
2019-03-08T09:18:17.395Z,10.72
2019-03-08T09:20:51.262Z,8.15
2019-03-08T09:23:29.927Z,10.43
2019-03-08T09:26:06.952Z,14.93
2019-03-08T09:28:53.397Z,6.53
2019-03-08T09:31:37.340Z,9.05
2019-03-08T09:34:12.935Z,5.15
2019-03-08T09:37:13.991Z,6.45
2019-03-08T09:40:01.008Z,9.58
2019-03-08T09:42:42.721Z,12.35
2019-03-08T09:45:21.775Z,12.30
2019-03-08T09:48:03.334Z,8.05
2019-03-08T09:50:58.879Z,15.38
2019-03-08T09:53:44.194Z,18.17
2019-03-08T09:56:22.368Z,11.50
2019-03-08T09:59:13.987Z,10.98
2019-03-08T10:01:55.422Z,10.45
2019-03-08T10:04:44.586Z,13.90
2019-03-08T10:07:30.719Z,19.25
2019-03-08T10:10:06.597Z,24.25
2019-03-08T10:12:42.773Z,17.45
2019-03-08T10:15:33.084Z,16.32
2019-03-08T10:18:19.971Z,13.25
2019-03-08T10:20:56.976Z,11.55
2019-03-08T10:23:40.049Z,21.97
2019-03-08T10:26:31.611Z,22.67
2019-03-08T10:29:20.787Z,23.40
2019-03-08T10:31:54.263Z,17.55
2019-03-08T10:34:32.019Z,15.13
2019-03-08T10:37:06.606Z,17.17
2019-03-08T10:39:55.160Z,14.93
2019-03-08T10:42:32.954Z,20.00
2019-03-08T10:45:13.740Z,17.37
2019-03-08T10:47:56.118Z,12.07
2019-03-08T10:50:33.249Z,29.23
2019-03-08T10:53:05.220Z,15.93
2019-03-08T10:55:37.484Z,14.75
2019-03-08T10:58:09.624Z,6.45
2019-03-08T11:00:50.385Z,19.67
2019-03-08T11:03:23.522Z,9.68
2019-03-08T11:06:01.567Z,17.82
2019-03-08T11:08:33.534Z,20.80
2019-03-08T11:11:08.272Z,10.03
2019-03-08T11:13:43.157Z,10.30
2019-03-08T11:16:31.510Z,12.23
2019-03-08T11:19:15.529Z,5.60
2019-03-08T11:22:03.533Z,16.65
2019-03-08T11:24:36.698Z,22.25
2019-03-08T11:27:24.718Z,22.48
2019-03-08T11:30:12.987Z,9.55
2019-03-08T11:32:50.672Z,13.38
2019-03-08T11:35:38.977Z,12.80
2019-03-08T11:38:27.576Z,9.88
2019-03-08T11:41:16.357Z,11.20
2019-03-08T11:43:52.997Z,14.95
2019-03-08T11:46:27.078Z,8.23
2019-03-08T11:48:59.778Z,14.87
2019-03-08T11:51:47.827Z,9.13
2019-03-08T11:54:19.718Z,11.08
2019-03-08T11:56:56.242Z,10.82
2019-03-08T11:59:34.315Z,11.10
2019-03-08T12:02:12.246Z,12.80
2019-03-08T12:05:03.806Z,11.97
2019-03-08T12:07:35.766Z,38.42
2019-03-08T12:10:19.795Z,22.07
2019-03-08T12:12:54.589Z,17.95
2019-03-08T12:15:39.287Z,13.15
2019-03-08T12:18:12.810Z,13.25
2019-03-08T12:20:45.976Z,12.60
2019-03-08T12:23:34.365Z,9.20
2019-03-08T12:26:09.510Z,12.18
2019-03-08T12:28:43.366Z,14.18
2019-03-08T12:31:20.516Z,14.63
2019-03-08T12:34:08.846Z,13.68
2019-03-08T12:36:49.554Z,9.38
2019-03-08T12:39:27.639Z,4.80
2019-03-08T12:42:16.053Z,13.70
2019-03-08T12:44:56.828Z,13.85
2019-03-08T12:47:47.951Z,11.43
2019-03-08T12:50:36.454Z,15.23
2019-03-08T12:53:25.727Z,8.40
2019-03-08T12:56:09.799Z,9.60
2019-03-08T12:58:44.424Z,5.65
2019-03-08T13:01:22.140Z,10.72
2019-03-08T13:03:57.085Z,9.78
2019-03-08T13:06:28.978Z,4.97
2019-03-08T13:09:13.132Z,11.05
2019-03-08T13:11:43.585Z,5.35
2019-03-08T13:14:14.044Z,6.58
2019-03-08T13:16:44.632Z,12.63
2019-03-08T13:19:14.896Z,9.25
2019-03-08T13:21:45.216Z,8.70
2019-03-08T13:24:15.552Z,15.80
2019-03-08T13:26:46.707Z,27.70
2019-03-08T13:29:18.657Z,9.03
2019-03-08T13:31:50.163Z,11.25
2019-03-08T13:34:20.490Z,7.50
2019-03-08T13:36:51.988Z,6.95
2019-03-08T13:39:22.446Z,11.18
2019-03-08T13:41:52.909Z,11.00
2019-03-08T13:44:23.514Z,12.80
2019-03-08T13:46:55.284Z,16.55
2019-03-08T13:49:26.016Z,21.80
2019-03-08T13:51:56.568Z,16.87
2019-03-08T13:54:27.858Z,21.05
2019-03-08T13:56:58.111Z,12.28
2019-03-08T13:59:28.552Z,15.15
2019-03-08T14:01:58.996Z,13.62
2019-03-08T14:04:30.473Z,17.07
2019-03-08T14:07:01.981Z,15.40
2019-03-08T14:09:35.630Z,10.38
2019-03-08T14:12:06.617Z,7.35
2019-03-08T14:14:37.001Z,21.23
2019-03-08T14:17:08.941Z,13.48
2019-03-08T14:19:39.259Z,7.40
2019-03-08T14:22:09.711Z,12.45
2019-03-08T14:24:42.352Z,9.63
2019-03-08T14:27:13.100Z,8.38
2019-03-08T14:29:45.022Z,6.08
2019-03-08T14:32:16.486Z,6.53
2019-03-08T14:34:49.512Z,18.95
2019-03-08T14:37:19.844Z,37.40
2019-03-08T14:39:51.537Z,13.03
2019-03-08T14:42:32.487Z,9.63
2019-03-08T14:45:07.794Z,13.93
2019-03-08T14:47:38.209Z,11.48
2019-03-08T14:50:10.292Z,11.15
2019-03-08T14:52:41.549Z,9.15
2019-03-08T14:55:13.509Z,9.60
2019-03-08T14:57:44.024Z,13.58
2019-03-08T15:00:17.079Z,11.35
2019-03-08T15:02:48.620Z,16.30
2019-03-08T15:05:20.397Z,11.10
2019-03-08T15:07:50.867Z,10.70
2019-03-08T15:10:21.692Z,14.25
2019-03-08T15:12:53.288Z,22.15
2019-03-08T15:15:28.612Z,10.03
2019-03-08T15:17:59.113Z,11.05
2019-03-08T15:20:29.372Z,7.47
2019-03-08T15:23:01.061Z,7.22
2019-03-08T15:25:34.543Z,12.63
2019-03-08T15:28:04.923Z,11.73
2019-03-08T15:30:36.391Z,12.47
2019-03-08T15:33:06.953Z,13.25
2019-03-08T15:35:38.364Z,10.32
2019-03-08T15:38:10.085Z,15.85
2019-03-08T15:40:40.962Z,11.95
2019-03-08T15:43:13.606Z,14.47
2019-03-08T15:45:47.305Z,15.90
2019-03-08T15:48:19.342Z,15.25
2019-03-08T15:50:49.614Z,14.10
2019-03-08T15:53:20.691Z,25.15
2019-03-08T15:55:53.133Z,24.70
2019-03-08T15:58:24.244Z,48.50
2019-03-08T16:00:54.842Z,26.40
2019-03-08T16:03:30.094Z,31.48
2019-03-08T16:06:03.089Z,23.10
2019-03-08T16:08:35.768Z,21.90
2019-03-08T16:11:06.195Z,30.15
2019-03-08T16:13:39.145Z,14.98
2019-03-08T16:16:10.039Z,25.57
2019-03-08T16:18:48.260Z,26.73
2019-03-08T16:21:21.795Z,26.15
2019-03-08T16:23:53.944Z,24.30
2019-03-08T16:26:27.054Z,32.67
2019-03-08T16:28:58.481Z,39.73
2019-03-08T16:31:40.011Z,28.02
2019-03-08T16:34:14.537Z,40.25
2019-03-08T16:36:51.182Z,29.30
2019-03-08T16:39:50.423Z,33.67
2019-03-08T16:42:26.435Z,25.08
2019-03-08T16:45:16.580Z,17.05
2019-03-08T16:48:10.716Z,35.45
2019-03-08T16:50:50.665Z,32.48
2019-03-08T16:53:26.173Z,58.45
2019-03-08T16:56:05.568Z,42.17
2019-03-08T16:58:41.766Z,28.10
2019-03-08T17:01:17.067Z,22.45
2019-03-08T17:03:56.286Z,18.17
2019-03-08T17:06:40.542Z,35.05
2019-03-08T17:09:23.259Z,45.65
2019-03-08T17:11:57.915Z,39.63
2019-03-08T17:14:38.171Z,28.95
2019-03-08T17:17:27.242Z,31.23
2019-03-08T17:20:02.250Z,47.40
2019-03-08T17:22:41.882Z,51.68
2019-03-08T17:25:31.874Z,32.27
2019-03-08T17:28:16.972Z,28.60
2019-03-08T17:30:54.969Z,32.43
2019-03-08T17:33:28.446Z,30.13
2019-03-08T17:36:04.180Z,33.60
2019-03-08T17:38:39.494Z,28.00
2019-03-08T17:41:13.046Z,26.70
2019-03-08T17:43:52.494Z,20.45
2019-03-08T17:46:32.277Z,23.67
2019-03-08T17:49:05.741Z,18.30
2019-03-08T17:51:52.399Z,23.70
2019-03-08T17:54:28.147Z,52.53
2019-03-08T17:57:01.299Z,73.17
2019-03-08T17:59:36.965Z,79.20
2019-03-08T18:02:17.975Z,60.60
2019-03-08T18:04:56.521Z,52.45
2019-03-08T18:07:40.872Z,59.30
2019-03-08T18:10:24.858Z,62.60
2019-03-08T18:12:56.977Z,61.97
2019-03-08T18:15:41.027Z,48.90
2019-03-08T18:18:13.104Z,54.97
2019-03-08T18:20:51.636Z,38.90
2019-03-08T18:23:29.657Z,22.33
2019-03-08T18:26:01.570Z,25.40
2019-03-08T18:28:51.114Z,19.30
2019-03-08T18:31:35.189Z,25.40
2019-03-08T18:34:07.196Z,33.97
2019-03-08T18:36:48.307Z,39.13
2019-03-08T18:39:24.280Z,45.13
2019-03-08T18:41:56.406Z,48.20
2019-03-08T18:44:46.183Z,58.17
2019-03-08T18:47:30.571Z,64.03
2019-03-08T18:50:05.878Z,68.23
2019-03-08T18:52:51.596Z,74.30
2019-03-08T18:55:32.513Z,97.10
2019-03-08T18:58:09.799Z,152.30
2019-03-08T19:00:49.145Z,145.63
2019-03-08T19:03:27.045Z,117.30
2019-03-08T19:06:11.281Z,109.90
2019-03-08T19:08:52.173Z,131.37
2019-03-08T19:11:40.888Z,110.50
2019-03-08T19:14:14.227Z,125.93
2019-03-08T19:16:51.433Z,101.03
2019-03-08T19:19:27.417Z,90.70
2019-03-08T19:22:15.766Z,113.03
2019-03-08T19:24:52.495Z,102.93
2019-03-08T19:27:34.870Z,84.63
2019-03-08T19:30:14.677Z,89.20
2019-03-08T19:32:54.580Z,98.43
2019-03-08T19:35:27.724Z,102.97
2019-03-08T19:38:18.286Z,89.20
2019-03-08T19:41:07.486Z,92.27
2019-03-08T19:43:42.383Z,86.13
2019-03-08T19:46:30.957Z,89.93
2019-03-08T19:49:02.872Z,59.30
2019-03-08T19:51:38.841Z,50.13
2019-03-08T19:54:11.915Z,58.23
2019-03-08T19:56:49.884Z,79.33
2019-03-08T19:59:28.307Z,97.83
2019-03-08T20:02:12.042Z,85.47
2019-03-08T20:05:05.937Z,84.27
2019-03-08T20:07:56.977Z,72.53
2019-03-08T20:10:33.131Z,71.47
2019-03-08T20:13:06.748Z,97.20
2019-03-08T20:15:43.812Z,86.87
2019-03-08T20:18:28.665Z,75.90
2019-03-08T20:21:14.415Z,67.47
2019-03-08T20:23:55.972Z,85.53
2019-03-08T20:26:52.546Z,86.50
2019-03-08T20:29:47.966Z,75.37
2019-03-08T20:32:30.596Z,79.63
2019-03-08T20:35:02.815Z,79.57
2019-03-08T20:37:43.767Z,95.70
2019-03-08T20:40:33.331Z,109.20
2019-03-08T20:43:06.621Z,114.37
2019-03-08T20:45:38.723Z,91.67
2019-03-08T20:48:13.389Z,81.13
2019-03-08T20:50:46.761Z,67.43
2019-03-08T20:53:18.183Z,55.60
2019-03-08T20:55:55.402Z,50.57
2019-03-08T20:58:29.485Z,47.90
2019-03-08T21:01:01.204Z,48.13
2019-03-08T21:03:37.737Z,71.47
2019-03-08T21:06:11.707Z,71.63
2019-03-08T21:08:45.245Z,78.57
2019-03-08T21:11:17.310Z,83.90
2019-03-08T21:13:48.192Z,87.23
2019-03-08T21:16:19.700Z,94.17
2019-03-08T21:18:54.114Z,85.27
2019-03-08T21:21:25.555Z,83.00
2019-03-08T21:23:55.893Z,77.33
2019-03-08T21:26:27.298Z,79.77
2019-03-08T21:28:59.091Z,81.17
2019-03-08T21:31:30.610Z,86.10
2019-03-08T21:34:02.347Z,83.93
2019-03-08T21:36:34.661Z,90.43
2019-03-08T21:39:06.263Z,79.47
2019-03-08T21:41:37.887Z,83.97
2019-03-08T21:44:08.399Z,92.73
2019-03-08T21:46:39.141Z,71.70
2019-03-08T21:49:09.771Z,65.27
2019-03-08T21:51:41.557Z,61.10
2019-03-08T21:54:12.996Z,60.67
2019-03-08T21:56:44.752Z,69.30
2019-03-08T21:59:17.127Z,67.23
2019-03-08T22:01:50.136Z,64.93
2019-03-08T22:04:28.038Z,68.73
2019-03-08T22:07:00.103Z,70.37
2019-03-08T22:09:35.513Z,62.53
2019-03-08T22:12:06.979Z,79.53
2019-03-08T22:14:43.536Z,77.30
2019-03-08T22:17:17.453Z,64.40
2019-03-08T22:19:47.794Z,71.73
2019-03-08T22:22:22.079Z,75.47
2019-03-08T22:24:55.870Z,59.93
2019-03-08T22:27:26.612Z,37.47
2019-03-08T22:30:01.863Z,18.77
2019-03-08T22:32:35.661Z,22.20
2019-03-08T22:35:12.432Z,22.23
2019-03-08T22:37:49.056Z,25.93
2019-03-08T22:40:23.547Z,27.87
2019-03-08T22:42:54.913Z,26.63
2019-03-08T22:45:25.325Z,33.83
2019-03-08T22:47:55.858Z,32.37
2019-03-08T22:50:28.538Z,37.83
2019-03-08T22:53:00.116Z,44.27
2019-03-08T22:55:30.667Z,40.07
2019-03-08T22:58:01.036Z,38.67
2019-03-08T23:00:47.311Z,43.30
2019-03-08T23:03:20.532Z,46.10
2019-03-08T23:05:52.152Z,41.63
2019-03-08T23:08:22.515Z,33.23
2019-03-08T23:10:53.443Z,35.03
2019-03-08T23:13:24.461Z,27.03
2019-03-08T23:15:57.513Z,22.17
2019-03-08T23:18:29.238Z,26.10
2019-03-08T23:21:00.696Z,22.00
2019-03-08T23:23:31.228Z,18.17
2019-03-08T23:26:02.690Z,22.23
2019-03-08T23:28:37.453Z,16.63
2019-03-08T23:31:09.374Z,23.47
2019-03-08T23:33:39.780Z,25.30
2019-03-08T23:36:14.212Z,24.03
2019-03-08T23:38:44.549Z,29.70
2019-03-08T23:41:17.513Z,19.57
2019-03-08T23:43:48.081Z,20.97
2019-03-08T23:46:20.447Z,30.67
2019-03-08T23:48:51.885Z,25.67
2019-03-08T23:51:22.415Z,24.27
2019-03-08T23:53:52.948Z,27.93
2019-03-08T23:56:24.396Z,22.47
2019-03-08T23:58:54.649Z,26.60
